Time,TemperatureF,DewpointF,PressureIn,WindDirection,WindDirectionDegrees,WindSpeedMPH,WindSpeedGustMPH,Humidity,HourlyPrecipIn,Conditions,Clouds,dailyrainin,SoftwareType,DateUTC
2013-03-22 00:00:00,20.3,-2.0,30.02,North,0,0.0,0.0,37,0.00,,,0.00,WUHU21623XXSP,2013-03-22 05:00:00,
2013-03-22 00:05:00,20.3,-1.4,30.02,North,0,0.0,0.0,38,0.00,,,0.00,WUHU21623XXSP,2013-03-22 05:05:00,
2013-03-22 00:10:00,20.3,-1.4,30.02,North,0,0.0,0.0,38,0.00,,,0.00,WUHU21623XXSP,2013-03-22 05:10:00,
2013-03-22 00:15:00,20.3,-1.4,30.02,North,0,0.0,0.0,38,0.00,,,0.00,WUHU21623XXSP,2013-03-22 05:15:00,
2013-03-22 00:20:00,20.3,-0.7,30.02,North,0,0.0,0.0,39,0.00,,,0.00,WUHU21623XXSP,2013-03-22 05:20:00,
2013-03-22 00:25:00,20.1,-0.9,30.02,North,0,0.0,0.0,39,0.00,,,0.00,WUHU21623XXSP,2013-03-22 05:25:00,
2013-03-22 00:30:00,20.1,-0.9,30.02,North,0,0.0,0.0,39,0.00,,,0.00,WUHU21623XXSP,2013-03-22 05:30:00,
2013-03-22 00:35:00,19.9,-1.1,30.03,North,0,0.0,0.0,39,0.00,,,0.00,WUHU21623XXSP,2013-03-22 05:35:00,
2013-03-22 00:40:00,19.9,-1.1,30.03,North,0,0.0,0.0,39,0.00,,,0.00,WUHU21623XXSP,2013-03-22 05:40:00,
2013-03-22 00:45:00,19.8,-1.2,30.02,North,0,0.0,0.0,39,0.00,,,0.00,WUHU21623XXSP,2013-03-22 05:45:00,
2013-03-22 00:50:00,19.8,-1.2,30.02,North,0,0.0,0.0,39,0.00,,,0.00,WUHU21623XXSP,2013-03-22 05:50:00,
2013-03-22 00:55:00,19.8,-1.2,30.02,North,0,0.0,0.0,39,0.00,,,0.00,WUHU21623XXSP,2013-03-22 05:55:00,
2013-03-22 01:00:00,19.8,-1.2,30.02,North,0,0.0,0.0,39,0.00,,,0.00,WUHU21623XXSP,2013-03-22 06:00:00,
2013-03-22 01:05:00,19.8,-1.2,30.02,North,0,0.0,0.0,39,0.00,,,0.00,WUHU21623XXSP,2013-03-22 06:05:00,
2013-03-22 01:10:00,19.8,-0.6,30.03,North,0,0.0,0.0,40,0.00,,,0.00,WUHU21623XXSP,2013-03-22 06:10:00,
2013-03-22 01:15:00,19.6,-0.8,30.03,North,0,0.0,0.0,40,0.00,,,0.00,WUHU21623XXSP,2013-03-22 06:15:00,
2013-03-22 01:20:00,19.6,-0.8,30.02,North,0,0.0,0.0,40,0.00,,,0.00,WUHU21623XXSP,2013-03-22 06:20:00,
2013-03-22 01:25:00,19.6,-0.8,30.02,North,0,0.0,0.0,40,0.00,,,0.00,WUHU21623XXSP,2013-03-22 06:25:00,
2013-03-22 01:30:00,19.6,-0.8,30.02,North,0,0.0,0.0,40,0.00,,,0.00,WUHU21623XXSP,2013-03-22 06:30:00,
2013-03-22 01:35:00,19.6,-0.8,30.03,North,0,0.0,0.0,40,0.00,,,0.00,WUHU21623XXSP,2013-03-22 06:35:00,
2013-03-22 01:40:00,19.6,-0.8,30.02,North,0,0.0,0.0,40,0.00,,,0.00,WUHU21623XXSP,2013-03-22 06:40:00,
2013-03-22 01:45:00,19.4,-0.9,30.02,North,0,0.0,0.0,40,0.00,,,0.00,WUHU21623XXSP,2013-03-22 06:45:00,
2013-03-22 01:50:00,19.4,-0.9,30.03,North,0,0.0,0.0,40,0.00,,,0.00,WUHU21623XXSP,2013-03-22 06:50:00,
2013-03-22 01:55:00,19.2,-1.1,30.03,North,0,0.0,0.0,40,0.00,,,0.00,WUHU21623XXSP,2013-03-22 06:55:00,
2013-03-22 02:00:00,19.2,-1.1,30.03,North,0,0.0,0.0,40,0.00,,,0.00,WUHU21623XXSP,2013-03-22 07:00:00,
2013-03-22 02:05:00,19.2,-1.1,30.03,North,0,0.0,0.0,40,0.00,,,0.00,WUHU21623XXSP,2013-03-22 07:05:00,
2013-03-22 02:10:00,19.2,-0.6,30.03,North,0,0.0,0.0,41,0.00,,,0.00,WUHU21623XXSP,2013-03-22 07:10:00,
2013-03-22 02:15:00,19.0,-0.8,30.04,North,0,0.0,0.0,41,0.00,,,0.00,WUHU21623XXSP,2013-03-22 07:15:00,
2013-03-22 02:20:00,19.0,-0.8,30.03,North,0,0.0,0.0,41,0.00,,,0.00,WUHU21623XXSP,2013-03-22 07:20:00,
2013-03-22 02:25:00,19.0,-0.8,30.03,North,0,0.0,0.0,41,0.00,,,0.00,WUHU21623XXSP,2013-03-22 07:25:00,
2013-03-22 02:30:00,19.0,-0.8,30.03,North,0,0.0,0.0,41,0.00,,,0.00,WUHU21623XXSP,2013-03-22 07:30:00,
2013-03-22 02:35:00,18.9,-1.0,30.03,North,0,0.0,0.0,41,0.00,,,0.00,WUHU21623XXSP,2013-03-22 07:35:00,
2013-03-22 02:40:00,18.9,-1.0,30.03,North,0,0.0,0.0,41,0.00,,,0.00,WUHU21623XXSP,2013-03-22 07:40:00,
2013-03-22 02:45:00,18.9,-1.0,30.03,North,0,0.0,0.0,41,0.00,,,0.00,WUHU21623XXSP,2013-03-22 07:45:00,
2013-03-22 02:50:00,18.9,-1.0,30.03,North,0,0.0,0.0,41,0.00,,,0.00,WUHU21623XXSP,2013-03-22 07:50:00,
2013-03-22 02:55:00,18.7,-1.1,30.03,North,0,0.0,0.0,41,0.00,,,0.00,WUHU21623XXSP,2013-03-22 07:55:00,
2013-03-22 03:00:00,18.7,-1.1,30.03,NW,315,0.0,0.0,41,0.00,,,0.00,WUHU21623XXSP,2013-03-22 08:00:00,
2013-03-22 03:05:00,18.7,-0.7,30.03,NW,315,0.0,0.0,42,0.00,,,0.00,WUHU21623XXSP,2013-03-22 08:05:00,
2013-03-22 03:10:00,18.5,-0.8,30.03,NW,315,0.0,0.0,42,0.00,,,0.00,WUHU21623XXSP,2013-03-22 08:10:00,
2013-03-22 03:15:00,18.7,-0.7,30.03,NW,315,0.0,0.0,42,0.00,,,0.00,WUHU21623XXSP,2013-03-22 08:15:00,
2013-03-22 04:11:00,18.1,-0.8,30.02,NW,315,0.0,0.0,43,0.00,,,0.00,WUHU21623XXSP,2013-03-22 09:11:00,
2013-03-22 05:11:00,17.2,-1.1,30.02,NW,315,0.0,0.0,44,0.00,,,0.00,WUHU21623XXSP,2013-03-22 10:11:00,
2013-03-22 06:19:00,16.7,-1.1,30.02,NNE,23,0.0,0.0,45,0.00,,,0.00,WUHU21623XXSP,2013-03-22 11:19:00,
2013-03-22 06:24:00,16.7,-0.6,30.03,NE,45,0.0,0.7,46,0.00,,,0.00,WUHU21623XXSP,2013-03-22 11:24:00,
2013-03-22 06:29:00,16.7,-0.6,30.03,NNE,22,0.0,0.7,46,0.00,,,0.00,WUHU21623XXSP,2013-03-22 11:29:00,
2013-03-22 06:34:00,16.7,-0.6,30.03,North,0,0.0,0.0,46,0.00,,,0.00,WUHU21623XXSP,2013-03-22 11:34:00,
2013-03-22 06:39:00,16.5,-0.8,30.02,NNE,22,0.2,0.2,46,0.00,,,0.00,WUHU21623XXSP,2013-03-22 11:39:00,
2013-03-22 06:44:00,16.5,-0.8,30.02,North,0,0.4,0.4,46,0.00,,,0.00,WUHU21623XXSP,2013-03-22 11:44:00,
2013-03-22 06:49:00,16.5,-0.8,30.02,North,0,0.0,0.4,46,0.00,,,0.00,WUHU21623XXSP,2013-03-22 11:49:00,
2013-03-22 06:54:00,16.5,-0.8,30.03,NNE,22,0.0,0.7,46,0.00,,,0.00,WUHU21623XXSP,2013-03-22 11:54:00,
2013-03-22 06:59:00,16.5,-0.8,30.03,NNE,22,0.0,0.7,46,0.00,,,0.00,WUHU21623XXSP,2013-03-22 11:59:00,
2013-03-22 07:04:00,16.3,-0.9,30.03,NNE,22,0.4,0.7,46,0.00,,,0.00,WUHU21623XXSP,2013-03-22 12:04:00,
2013-03-22 07:09:00,16.3,-0.9,30.02,NNE,22,0.4,0.7,46,0.00,,,0.00,WUHU21623XXSP,2013-03-22 12:09:00,
2013-03-22 07:14:00,16.3,-0.9,30.03,NNE,22,0.0,1.3,46,0.00,,,0.00,WUHU21623XXSP,2013-03-22 12:14:00,
2013-03-22 07:19:00,16.3,-0.9,30.03,NE,45,0.4,1.3,46,0.00,,,0.00,WUHU21623XXSP,2013-03-22 12:19:00,
2013-03-22 07:24:00,16.5,-0.8,30.03,NNE,22,0.4,1.1,46,0.00,,,0.00,WUHU21623XXSP,2013-03-22 12:24:00,
2013-03-22 07:29:00,16.5,-0.8,30.03,NE,45,1.6,1.6,46,0.00,,,0.00,WUHU21623XXSP,2013-03-22 12:29:00,
2013-03-22 07:34:00,16.7,-0.6,30.03,NNE,22,0.0,1.6,46,0.00,,,0.00,WUHU21623XXSP,2013-03-22 12:34:00,
2013-03-22 07:39:00,18.3,1.4,30.03,NNE,22,0.2,0.7,47,0.00,,,0.00,WUHU21623XXSP,2013-03-22 12:39:00,
2013-03-22 07:44:00,20.1,3.5,30.03,NNE,22,0.0,0.2,48,0.00,,,0.00,WUHU21623XXSP,2013-03-22 12:44:00,
2013-03-22 07:49:00,21.6,4.3,30.03,NNE,22,0.0,0.0,47,0.00,,,0.00,WUHU21623XXSP,2013-03-22 12:49:00,
2013-03-22 07:54:00,21.4,3.6,30.03,NNE,22,0.0,0.0,46,0.00,,,0.00,WUHU21623XXSP,2013-03-22 12:54:00,
2013-03-22 07:59:00,21.2,3.0,30.04,NNE,22,0.0,0.0,45,0.00,,,0.00,WUHU21623XXSP,2013-03-22 12:59:00,
2013-03-22 08:04:00,20.8,2.2,30.03,NNE,22,0.0,0.0,44,0.00,,,0.00,WUHU21623XXSP,2013-03-22 13:04:00,
2013-03-22 08:09:00,20.8,2.2,30.04,NNE,22,0.0,0.0,44,0.00,,,0.00,WUHU21623XXSP,2013-03-22 13:09:00,
2013-03-22 08:14:00,21.4,2.7,30.03,NNE,22,0.0,0.0,44,0.00,,,0.00,WUHU21623XXSP,2013-03-22 13:14:00,
2013-03-22 08:19:00,21.4,2.7,30.03,NNE,22,0.0,0.0,44,0.00,,,0.00,WUHU21623XXSP,2013-03-22 13:19:00,
2013-03-22 08:24:00,22.1,2.9,30.04,NNE,22,0.0,0.0,43,0.00,,,0.00,WUHU21623XXSP,2013-03-22 13:24:00,
2013-03-22 08:29:00,22.6,3.4,30.03,NNE,22,0.0,0.0,43,0.00,,,0.00,WUHU21623XXSP,2013-03-22 13:29:00,
2013-03-22 08:34:00,23.2,3.9,30.04,NNE,22,0.0,0.0,43,0.00,,,0.00,WUHU21623XXSP,2013-03-22 13:34:00,
2013-03-22 08:39:00,23.5,3.8,30.04,NNE,22,0.0,0.0,42,0.00,,,0.00,WUHU21623XXSP,2013-03-22 13:39:00,
2013-03-22 08:44:00,24.3,4.4,30.04,NNE,22,0.0,0.0,42,0.00,,,0.00,WUHU21623XXSP,2013-03-22 13:44:00,
2013-03-22 08:49:00,25.0,5.1,30.04,NNW,337,0.0,0.0,42,0.00,,,0.00,WUHU21623XXSP,2013-03-22 13:49:00,
2013-03-22 08:54:00,25.7,5.7,30.04,NNW,337,0.0,0.0,42,0.00,,,0.00,WUHU21623XXSP,2013-03-22 13:54:00,
2013-03-22 08:59:00,26.1,6.0,30.04,NNW,337,0.0,0.0,42,0.00,,,0.00,WUHU21623XXSP,2013-03-22 13:59:00,
2013-03-22 09:04:00,26.6,6.0,30.04,NNW,337,0.0,0.0,41,0.00,,,0.00,WUHU21623XXSP,2013-03-22 14:04:00,
2013-03-22 09:09:00,27.5,6.8,30.04,NNW,337,0.0,0.0,41,0.00,,,0.00,WUHU21623XXSP,2013-03-22 14:09:00,
2013-03-22 09:14:00,28.2,7.5,30.04,NNW,337,0.0,0.0,41,0.00,,,0.00,WUHU21623XXSP,2013-03-22 14:14:00,
2013-03-22 09:19:00,28.9,7.6,30.04,NW,315,0.0,0.0,40,0.00,,,0.00,WUHU21623XXSP,2013-03-22 14:19:00,
2013-03-22 09:24:00,30.0,8.6,30.04,NNW,337,0.2,0.4,40,0.00,,,0.00,WUHU21623XXSP,2013-03-22 14:24:00,
2013-03-22 09:29:00,30.7,8.6,30.04,NW,315,0.0,0.4,39,0.00,,,0.00,WUHU21623XXSP,2013-03-22 14:29:00,
2013-03-22 09:34:00,31.3,7.9,30.04,NNW,337,0.0,0.0,37,0.00,,,0.00,WUHU21623XXSP,2013-03-22 14:34:00,
2013-03-22 09:39:00,32.2,7.4,30.04,NNE,22,0.0,0.9,35,0.00,,,0.00,WUHU21623XXSP,2013-03-22 14:39:00,
2013-03-22 09:44:00,32.5,5.2,30.04,NW,315,0.0,0.9,31,0.00,,,0.00,WUHU21623XXSP,2013-03-22 14:44:00,
2013-03-22 09:49:00,32.7,4.7,30.04,NNE,22,1.1,1.1,30,0.00,,,0.00,WUHU21623XXSP,2013-03-22 14:49:00,
2013-03-22 09:54:00,33.3,1.7,30.04,NNW,337,0.4,1.1,26,0.00,,,0.00,WUHU21623XXSP,2013-03-22 14:54:00,
2013-03-22 09:59:00,34.0,0.6,30.04,NNE,22,0.2,0.9,24,0.00,,,0.00,WUHU21623XXSP,2013-03-22 14:59:00,
2013-03-22 10:04:00,34.0,-4.0,30.04,NNE,22,0.0,0.4,19,0.00,,,0.00,WUHU21623XXSP,2013-03-22 15:04:00,
2013-03-22 10:09:00,33.8,-4.2,30.04,WSW,247,0.0,0.4,19,0.00,,,0.00,WUHU21623XXSP,2013-03-22 15:09:00,
2013-03-22 10:14:00,33.6,-4.3,30.04,NW,315,0.0,0.0,19,0.00,,,0.00,WUHU21623XXSP,2013-03-22 15:14:00,
2013-03-22 10:19:00,34.0,-4.0,30.04,NNW,337,0.0,0.0,19,0.00,,,0.00,WUHU21623XXSP,2013-03-22 15:19:00,
2013-03-22 10:24:00,34.3,-3.7,30.04,NNW,337,0.0,0.0,19,0.00,,,0.00,WUHU21623XXSP,2013-03-22 15:24:00,
2013-03-22 10:29:00,34.5,-3.6,30.04,NW,315,1.8,1.8,19,0.00,,,0.00,WUHU21623XXSP,2013-03-22 15:29:00,
2013-03-22 10:34:00,34.3,-3.7,30.04,SW,225,0.0,1.8,19,0.00,,,0.00,WUHU21623XXSP,2013-03-22 15:34:00,
2013-03-22 10:39:00,34.2,-3.8,30.04,WSW,247,0.0,0.4,19,0.00,,,0.00,WUHU21623XXSP,2013-03-22 15:39:00,
2013-03-22 10:44:00,34.3,-3.7,30.04,NNW,337,0.7,0.7,19,0.00,,,0.00,WUHU21623XXSP,2013-03-22 15:44:00,
2013-03-22 10:49:00,35.1,-3.1,30.04,NNW,337,0.0,2.5,19,0.00,,,0.00,WUHU21623XXSP,2013-03-22 15:49:00,
2013-03-22 10:54:00,35.2,-3.0,30.04,North,0,3.1,3.1,19,0.00,,,0.00,WUHU21623XXSP,2013-03-22 15:54:00,
2013-03-22 10:59:00,35.4,-2.8,30.04,WSW,247,0.0,3.1,19,0.00,,,0.00,WUHU21623XXSP,2013-03-22 15:59:00,
2013-03-22 11:04:00,35.2,-3.0,30.04,WNW,292,2.9,2.9,19,0.00,,,0.00,WUHU21623XXSP,2013-03-22 16:04:00,
2013-03-22 11:09:00,35.8,-2.5,30.04,NNE,22,0.0,2.9,19,0.00,,,0.00,WUHU21623XXSP,2013-03-22 16:09:00,
2013-03-22 11:14:00,36.1,-2.3,30.04,WNW,292,0.0,3.6,19,0.00,,,0.00,WUHU21623XXSP,2013-03-22 16:14:00,
2013-03-22 11:19:00,36.5,-1.9,30.04,North,0,2.7,3.6,19,0.00,,,0.00,WUHU21623XXSP,2013-03-22 16:19:00,
2013-03-22 11:24:00,37.0,-1.5,30.04,WNW,292,0.0,2.7,19,0.00,,,0.00,WUHU21623XXSP,2013-03-22 16:24:00,
2013-03-22 11:29:00,37.2,-1.3,30.03,NNW,337,0.7,1.6,19,0.00,,,0.00,WUHU21623XXSP,2013-03-22 16:29:00,
2013-03-22 11:34:00,37.0,-1.5,30.03,South,180,0.0,1.6,19,0.00,,,0.00,WUHU21623XXSP,2013-03-22 16:34:00,
2013-03-22 11:39:00,37.0,-1.5,30.04,North,0,0.0,1.3,19,0.00,,,0.00,WUHU21623XXSP,2013-03-22 16:39:00,
2013-03-22 11:44:00,36.9,-1.6,30.04,WNW,292,0.2,3.1,19,0.00,,,0.00,WUHU21623XXSP,2013-03-22 16:44:00,
2013-03-22 11:49:00,37.0,-1.5,30.04,North,0,0.0,3.1,19,0.00,,,0.00,WUHU21623XXSP,2013-03-22 16:49:00,
2013-03-22 11:54:00,37.2,-1.3,30.03,NNW,337,0.0,3.1,19,0.00,,,0.00,WUHU21623XXSP,2013-03-22 16:54:00,
2013-03-22 11:59:00,37.8,-0.8,30.03,NW,315,0.0,0.0,19,0.00,,,0.00,WUHU21623XXSP,2013-03-22 16:59:00,
2013-03-22 12:04:00,38.3,-0.4,30.04,NNE,22,0.0,1.3,19,0.00,,,0.00,WUHU21623XXSP,2013-03-22 17:04:00,
2013-03-22 12:09:00,37.6,-1.0,30.03,SW,225,0.0,1.6,19,0.00,,,0.00,WUHU21623XXSP,2013-03-22 17:09:00,
2013-03-22 12:14:00,37.6,-1.0,30.03,WSW,247,0.0,1.6,19,0.00,,,0.00,WUHU21623XXSP,2013-03-22 17:14:00,
2013-03-22 12:19:00,37.6,-1.0,30.03,NNW,337,0.0,1.6,19,0.00,,,0.00,WUHU21623XXSP,2013-03-22 17:19:00,
2013-03-22 12:24:00,37.8,-0.8,30.03,West,270,0.0,2.5,19,0.00,,,0.00,WUHU21623XXSP,2013-03-22 17:24:00,
2013-03-22 12:29:00,38.3,-0.4,30.03,NNE,22,0.0,2.5,19,0.00,,,0.00,WUHU21623XXSP,2013-03-22 17:29:00,
2013-03-22 12:34:00,39.2,0.3,30.03,East,90,0.0,1.8,19,0.00,,,0.00,WUHU21623XXSP,2013-03-22 17:34:00,
2013-03-22 12:39:00,39.4,0.5,30.03,WNW,292,0.0,0.9,19,0.00,,,0.00,WUHU21623XXSP,2013-03-22 17:39:00,
2013-03-22 12:44:00,39.7,0.7,30.03,WNW,292,0.9,0.9,19,0.00,,,0.00,WUHU21623XXSP,2013-03-22 17:44:00,
2013-03-22 12:49:00,40.1,1.1,30.02,SSE,157,0.7,0.9,19,0.00,,,0.00,WUHU21623XXSP,2013-03-22 17:49:00,
2013-03-22 12:54:00,40.1,1.1,30.02,South,180,2.0,2.0,19,0.00,,,0.00,WUHU21623XXSP,2013-03-22 17:54:00,
2013-03-22 12:59:00,39.7,0.7,30.02,SSW,202,1.1,2.0,19,0.00,,,0.00,WUHU21623XXSP,2013-03-22 17:59:00,
2013-03-22 13:04:00,39.2,0.3,30.02,WSW,247,0.0,1.1,19,0.00,,,0.00,WUHU21623XXSP,2013-03-22 18:04:00,
2013-03-22 13:09:00,39.0,0.2,30.02,SSW,202,0.0,2.0,19,0.00,,,0.00,WUHU21623XXSP,2013-03-22 18:09:00,
2013-03-22 13:14:00,39.2,0.3,30.02,SW,225,0.0,2.0,19,0.00,,,0.00,WUHU21623XXSP,2013-03-22 18:14:00,
2013-03-22 13:19:00,39.7,0.7,30.02,WNW,292,1.8,1.8,19,0.00,,,0.00,WUHU21623XXSP,2013-03-22 18:19:00,
2013-03-22 13:24:00,40.1,1.1,30.02,SW,225,0.0,1.8,19,0.00,,,0.00,WUHU21623XXSP,2013-03-22 18:24:00,
2013-03-22 13:29:00,41.2,2.0,30.01,SSW,202,0.0,0.0,19,0.00,,,0.00,WUHU21623XXSP,2013-03-22 18:29:00,
2013-03-22 13:34:00,41.0,1.8,30.01,WSW,247,1.1,1.1,19,0.00,,,0.00,WUHU21623XXSP,2013-03-22 18:34:00,
2013-03-22 13:39:00,41.0,1.8,30.01,NW,315,1.1,1.3,19,0.00,,,0.00,WUHU21623XXSP,2013-03-22 18:39:00,
2013-03-22 13:44:00,40.5,1.4,30.01,SSE,157,1.8,1.8,19,0.00,,,0.00,WUHU21623XXSP,2013-03-22 18:44:00,
2013-03-22 13:49:00,41.0,1.8,30.01,WSW,247,0.0,1.8,19,0.00,,,0.00,WUHU21623XXSP,2013-03-22 18:49:00,
2013-03-22 13:54:00,41.0,1.8,30.01,WSW,247,1.1,3.1,19,0.00,,,0.00,WUHU21623XXSP,2013-03-22 18:54:00,
2013-03-22 13:59:00,41.2,2.0,30.01,SW,225,1.1,3.1,19,0.00,,,0.00,WUHU21623XXSP,2013-03-22 18:59:00,
2013-03-22 14:04:00,40.6,1.5,30.01,South,180,0.4,2.5,19,0.00,,,0.00,WUHU21623XXSP,2013-03-22 19:04:00,
2013-03-22 14:09:00,40.5,1.4,30.00,WSW,247,1.3,2.5,19,0.00,,,0.00,WUHU21623XXSP,2013-03-22 19:09:00,
2013-03-22 14:14:00,41.5,2.2,30.00,NE,45,0.4,1.3,19,0.00,,,0.00,WUHU21623XXSP,2013-03-22 19:14:00,
2013-03-22 14:19:00,42.4,3.0,30.00,ENE,67,0.9,0.9,19,0.00,,,0.00,WUHU21623XXSP,2013-03-22 19:19:00,
2013-03-22 14:24:00,42.4,3.0,29.99,NE,45,0.9,2.2,19,0.00,,,0.00,WUHU21623XXSP,2013-03-22 19:24:00,
2013-03-22 14:29:00,43.0,3.5,29.99,NE,45,0.0,2.2,19,0.00,,,0.00,WUHU21623XXSP,2013-03-22 19:29:00,
2013-03-22 14:34:00,43.3,3.7,29.99,ESE,112,1.3,1.3,19,0.00,,,0.00,WUHU21623XXSP,2013-03-22 19:34:00,
2013-03-22 14:39:00,43.0,3.5,29.99,NE,45,1.6,1.6,19,0.00,,,0.00,WUHU21623XXSP,2013-03-22 19:39:00,
2013-03-22 14:44:00,43.0,3.5,29.99,NE,45,0.0,2.0,19,0.00,,,0.00,WUHU21623XXSP,2013-03-22 19:44:00,
2013-03-22 14:49:00,43.0,3.5,29.99,ENE,67,0.0,2.0,19,0.00,,,0.00,WUHU21623XXSP,2013-03-22 19:49:00,
2013-03-22 14:54:00,43.0,3.5,30.00,ENE,67,0.9,0.9,19,0.00,,,0.00,WUHU21623XXSP,2013-03-22 19:54:00,
2013-03-22 14:59:00,43.3,3.7,30.00,NNW,337,2.7,2.7,19,0.00,,,0.00,WUHU21623XXSP,2013-03-22 19:59:00,
2013-03-22 15:04:00,43.5,3.9,30.00,NNE,22,0.0,2.7,19,0.00,,,0.00,WUHU21623XXSP,2013-03-22 20:04:00,
2013-03-22 15:09:00,43.5,3.9,29.99,NE,45,0.2,1.3,19,0.00,,,0.00,WUHU21623XXSP,2013-03-22 20:09:00,
2013-03-22 15:14:00,43.3,3.7,29.99,ESE,112,0.0,1.3,19,0.00,,,0.00,WUHU21623XXSP,2013-03-22 20:14:00,
2013-03-22 15:19:00,43.2,3.6,29.99,ENE,67,0.0,3.1,19,0.00,,,0.00,WUHU21623XXSP,2013-03-22 20:19:00,
2013-03-22 15:24:00,42.4,3.0,30.00,NE,45,2.7,3.1,19,0.00,,,0.00,WUHU21623XXSP,2013-03-22 20:24:00,
2013-03-22 15:29:00,42.4,3.0,29.99,ENE,67,0.4,3.4,19,0.00,,,0.00,WUHU21623XXSP,2013-03-22 20:29:00,
2013-03-22 15:34:00,41.9,2.6,29.99,ESE,112,0.2,3.4,19,0.00,,,0.00,WUHU21623XXSP,2013-03-22 20:34:00,
2013-03-22 15:39:00,40.6,1.5,29.99,NE,45,0.9,2.2,19,0.00,,,0.00,WUHU21623XXSP,2013-03-22 20:39:00,
2013-03-22 15:44:00,41.0,1.8,30.00,ENE,67,0.0,2.2,19,0.00,,,0.00,WUHU21623XXSP,2013-03-22 20:44:00,
2013-03-22 15:49:00,41.0,1.8,30.00,ENE,67,2.9,2.9,19,0.00,,,0.00,WUHU21623XXSP,2013-03-22 20:49:00,
2013-03-22 15:54:00,41.4,2.2,30.00,NNE,22,0.7,2.9,19,0.00,,,0.00,WUHU21623XXSP,2013-03-22 20:54:00,
2013-03-22 15:59:00,41.5,2.2,30.00,NNE,22,0.0,3.1,19,0.00,,,0.00,WUHU21623XXSP,2013-03-22 20:59:00,
2013-03-22 16:04:00,41.7,2.4,30.00,North,0,1.1,3.1,19,0.00,,,0.00,WUHU21623XXSP,2013-03-22 21:04:00,
2013-03-22 16:09:00,42.3,2.9,30.00,NE,45,0.0,2.7,19,0.00,,,0.00,WUHU21623XXSP,2013-03-22 21:09:00,
2013-03-22 16:14:00,42.4,3.0,29.99,ENE,67,1.3,2.7,19,0.00,,,0.00,WUHU21623XXSP,2013-03-22 21:14:00,
2013-03-22 16:19:00,42.8,3.3,30.00,ENE,67,0.0,2.5,19,0.00,,,0.00,WUHU21623XXSP,2013-03-22 21:19:00,
2013-03-22 16:24:00,42.4,3.0,30.00,ENE,67,0.9,0.9,19,0.00,,,0.00,WUHU21623XXSP,2013-03-22 21:24:00,
2013-03-22 16:29:00,42.3,2.9,30.00,ENE,67,3.1,3.1,19,0.00,,,0.00,WUHU21623XXSP,2013-03-22 21:29:00,
2013-03-22 16:34:00,42.1,2.7,30.00,NNW,337,1.3,3.1,19,0.00,,,0.00,WUHU21623XXSP,2013-03-22 21:34:00,
2013-03-22 16:39:00,41.9,2.6,30.00,ENE,67,0.0,2.0,19,0.00,,,0.00,WUHU21623XXSP,2013-03-22 21:39:00,
2013-03-22 16:44:00,41.9,2.6,30.00,East,90,0.7,2.0,19,0.00,,,0.00,WUHU21623XXSP,2013-03-22 21:44:00,
2013-03-22 16:49:00,41.9,2.6,30.00,East,90,0.4,0.7,19,0.00,,,0.00,WUHU21623XXSP,2013-03-22 21:49:00,
2013-03-22 16:54:00,42.1,2.7,30.00,NNE,22,0.0,1.1,19,0.00,,,0.00,WUHU21623XXSP,2013-03-22 21:54:00,
2013-03-22 16:59:00,42.4,3.0,30.00,North,0,0.9,1.1,19,0.00,,,0.00,WUHU21623XXSP,2013-03-22 21:59:00,
2013-03-22 17:04:00,42.6,3.1,30.00,ENE,67,0.0,0.9,19,0.00,,,0.00,WUHU21623XXSP,2013-03-22 22:04:00,
2013-03-22 17:09:00,42.3,2.9,30.00,North,0,2.2,2.2,19,0.00,,,0.00,WUHU21623XXSP,2013-03-22 22:09:00,
2013-03-22 17:14:00,42.1,2.7,30.00,NNE,22,2.5,4.0,19,0.00,,,0.00,WUHU21623XXSP,2013-03-22 22:14:00,
2013-03-22 17:19:00,41.7,2.4,30.00,NE,45,0.0,4.7,19,0.00,,,0.00,WUHU21623XXSP,2013-03-22 22:19:00,
2013-03-22 17:24:00,41.4,2.2,30.00,NNE,22,1.3,4.7,19,0.00,,,0.00,WUHU21623XXSP,2013-03-22 22:24:00,
2013-03-22 17:29:00,41.2,2.0,30.00,NNE,22,0.4,4.3,19,0.00,,,0.00,WUHU21623XXSP,2013-03-22 22:29:00,
2013-03-22 17:34:00,41.0,1.8,30.01,ENE,67,1.6,1.6,19,0.00,,,0.00,WUHU21623XXSP,2013-03-22 22:34:00,
2013-03-22 17:39:00,40.6,1.5,30.01,NNE,22,1.3,1.6,19,0.00,,,0.00,WUHU21623XXSP,2013-03-22 22:39:00,
2013-03-22 17:44:00,40.6,1.5,30.01,NE,45,1.8,1.8,19,0.00,,,0.00,WUHU21623XXSP,2013-03-22 22:44:00,
2013-03-22 17:49:00,40.1,1.1,30.01,NE,45,0.0,1.8,19,0.00,,,0.00,WUHU21623XXSP,2013-03-22 22:49:00,
2013-03-22 17:54:00,39.9,0.9,30.01,NNE,22,0.0,0.7,19,0.00,,,0.00,WUHU21623XXSP,2013-03-22 22:54:00,
2013-03-22 17:59:00,39.7,0.7,30.01,NNE,22,2.7,2.7,19,0.00,,,0.00,WUHU21623XXSP,2013-03-22 22:59:00,
2013-03-22 18:04:00,38.8,0.0,30.01,ENE,67,0.9,2.7,19,0.00,,,0.00,WUHU21623XXSP,2013-03-22 23:04:00,
2013-03-22 18:09:00,38.5,-0.3,30.01,NE,45,0.0,2.9,19,0.00,,,0.00,WUHU21623XXSP,2013-03-22 23:09:00,
2013-03-22 18:14:00,38.3,-0.4,30.01,NE,45,0.0,2.9,19,0.00,,,0.00,WUHU21623XXSP,2013-03-22 23:14:00,
2013-03-22 18:19:00,37.8,-0.8,30.01,NE,45,1.3,1.3,19,0.00,,,0.00,WUHU21623XXSP,2013-03-22 23:19:00,
2013-03-22 18:24:00,37.4,-1.2,30.01,NE,45,0.0,1.3,19,0.00,,,0.00,WUHU21623XXSP,2013-03-22 23:24:00,
2013-03-22 18:29:00,36.9,-1.6,30.01,NNE,22,2.7,2.7,19,0.00,,,0.00,WUHU21623XXSP,2013-03-22 23:29:00,
2013-03-22 18:34:00,36.1,-2.3,30.01,NNE,22,3.4,3.4,19,0.00,,,0.00,WUHU21623XXSP,2013-03-22 23:34:00,
2013-03-22 18:39:00,35.8,-2.5,30.00,NNE,22,1.1,3.4,19,0.00,,,0.00,WUHU21623XXSP,2013-03-22 23:39:00,
2013-03-22 18:44:00,35.4,-0.8,30.00,ENE,67,2.2,2.2,21,0.00,,,0.00,WUHU21623XXSP,2013-03-22 23:44:00,
2013-03-22 18:49:00,35.1,2.4,30.00,NE,45,0.0,2.2,25,0.00,,,0.00,WUHU21623XXSP,2013-03-22 23:49:00,
2013-03-22 18:54:00,34.7,3.8,30.00,East,90,0.2,2.0,27,0.00,,,0.00,WUHU21623XXSP,2013-03-22 23:54:00,
2013-03-22 18:59:00,34.3,4.4,30.00,NE,45,1.3,1.3,28,0.00,,,0.00,WUHU21623XXSP,2013-03-22 23:59:00,
2013-03-22 19:04:00,33.8,5.7,30.00,NE,45,0.4,1.3,30,0.00,,,0.00,WUHU21623XXSP,2013-03-23 00:04:00,
2013-03-22 19:09:00,33.6,6.3,30.00,NE,45,0.0,0.4,32,0.00,,,0.00,WUHU21623XXSP,2013-03-23 00:09:00,
2013-03-22 19:14:00,33.4,6.7,30.00,NNE,22,1.3,1.3,32,0.00,,,0.00,WUHU21623XXSP,2013-03-23 00:14:00,
2013-03-22 19:19:00,33.3,7.8,30.01,North,0,0.7,1.3,34,0.00,,,0.00,WUHU21623XXSP,2013-03-23 00:19:00,
2013-03-22 19:24:00,32.9,8.1,30.01,NNE,22,0.0,1.1,35,0.00,,,0.00,WUHU21623XXSP,2013-03-23 00:24:00,
2013-03-22 19:29:00,32.7,7.9,30.01,NNE,22,0.0,2.0,35,0.00,,,0.00,WUHU21623XXSP,2013-03-23 00:29:00,
2013-03-22 19:34:00,32.5,8.4,30.01,NNE,22,0.2,2.0,36,0.00,,,0.00,WUHU21623XXSP,2013-03-23 00:34:00,
2013-03-22 19:39:00,32.4,8.8,30.01,NE,45,0.0,1.3,37,0.00,,,0.00,WUHU21623XXSP,2013-03-23 00:39:00,
2013-03-22 19:44:00,32.4,9.5,30.01,NNE,22,0.0,1.3,38,0.00,,,0.00,WUHU21623XXSP,2013-03-23 00:44:00,
2013-03-22 19:49:00,32.0,9.1,30.01,ENE,67,0.0,0.0,38,0.00,,,0.00,WUHU21623XXSP,2013-03-23 00:49:00,
2013-03-22 19:54:00,31.8,9.6,30.01,ENE,67,0.0,0.0,39,0.00,,,0.00,WUHU21623XXSP,2013-03-23 00:54:00,
2013-03-22 19:59:00,31.8,9.6,30.02,ENE,67,0.0,0.0,39,0.00,,,0.00,WUHU21623XXSP,2013-03-23 00:59:00,
2013-03-22 20:04:00,31.6,10.1,30.02,NE,45,0.0,0.0,40,0.00,,,0.00,WUHU21623XXSP,2013-03-23 01:04:00,
2013-03-22 20:09:00,31.5,9.9,30.02,ENE,67,0.0,0.0,40,0.00,,,0.00,WUHU21623XXSP,2013-03-23 01:09:00,
2013-03-22 20:14:00,31.3,9.8,30.02,ENE,67,0.0,0.0,40,0.00,,,0.00,WUHU21623XXSP,2013-03-23 01:14:00,
2013-03-22 20:19:00,31.1,9.6,30.02,NE,45,0.0,0.0,40,0.00,,,0.00,WUHU21623XXSP,2013-03-23 01:19:00,
2013-03-22 20:24:00,30.9,9.4,30.02,NE,45,0.0,0.0,40,0.00,,,0.00,WUHU21623XXSP,2013-03-23 01:24:00,
2013-03-22 20:29:00,30.7,9.3,30.03,NNE,22,0.4,0.7,40,0.00,,,0.00,WUHU21623XXSP,2013-03-23 01:29:00,
2013-03-22 20:34:00,30.6,9.6,30.03,NNE,22,0.0,0.7,41,0.00,,,0.00,WUHU21623XXSP,2013-03-23 01:34:00,
2013-03-22 20:39:00,30.6,9.6,30.02,NE,45,0.0,0.0,41,0.00,,,0.00,WUHU21623XXSP,2013-03-23 01:39:00,
2013-03-22 20:44:00,30.4,9.4,30.03,ENE,67,0.0,0.0,41,0.00,,,0.00,WUHU21623XXSP,2013-03-23 01:44:00,
2013-03-22 20:49:00,30.2,9.8,30.02,NE,45,0.0,0.7,42,0.00,,,0.00,WUHU21623XXSP,2013-03-23 01:49:00,
2013-03-22 20:54:00,29.8,9.5,30.03,NE,45,0.0,0.9,42,0.00,,,0.00,WUHU21623XXSP,2013-03-23 01:54:00,
2013-03-22 20:59:00,29.8,10.0,30.03,NE,45,0.0,0.9,43,0.00,,,0.00,WUHU21623XXSP,2013-03-23 01:59:00,
2013-03-22 21:04:00,29.7,9.8,30.03,NNE,22,0.0,0.0,43,0.00,,,0.00,WUHU21623XXSP,2013-03-23 02:04:00,
2013-03-22 21:09:00,29.7,9.8,30.03,NE,45,0.0,0.0,43,0.00,,,0.00,WUHU21623XXSP,2013-03-23 02:09:00,
2013-03-22 21:14:00,29.7,10.3,30.03,NNE,22,0.0,1.3,44,0.00,,,0.00,WUHU21623XXSP,2013-03-23 02:14:00,
2013-03-22 21:19:00,29.5,10.1,30.04,NNE,22,0.0,1.3,44,0.00,,,0.00,WUHU21623XXSP,2013-03-23 02:19:00,
2013-03-22 21:24:00,29.3,10.0,30.03,NE,45,0.2,0.2,44,0.00,,,0.00,WUHU21623XXSP,2013-03-23 02:24:00,
2013-03-22 21:29:00,29.3,10.5,30.03,NNE,22,0.7,0.9,45,0.00,,,0.00,WUHU21623XXSP,2013-03-23 02:29:00,
2013-03-22 21:34:00,29.3,10.5,30.03,NNE,22,0.0,0.9,45,0.00,,,0.00,WUHU21623XXSP,2013-03-23 02:34:00,
2013-03-22 21:39:00,29.3,10.5,30.03,ENE,67,0.4,0.4,45,0.00,,,0.00,WUHU21623XXSP,2013-03-23 02:39:00,
2013-03-22 21:44:00,29.3,10.5,30.03,NNE,22,0.0,0.4,45,0.00,,,0.00,WUHU21623XXSP,2013-03-23 02:44:00,
2013-03-22 21:49:00,29.1,10.3,30.03,NNE,22,0.0,0.0,45,0.00,,,0.00,WUHU21623XXSP,2013-03-23 02:49:00,
2013-03-22 21:54:00,29.1,10.3,30.03,NE,45,0.4,0.4,45,0.00,,,0.00,WUHU21623XXSP,2013-03-23 02:54:00,
2013-03-22 21:59:00,29.1,10.3,30.03,NNE,22,0.0,0.4,45,0.00,,,0.00,WUHU21623XXSP,2013-03-23 02:59:00,
2013-03-22 22:04:00,28.9,10.2,30.03,NNE,22,0.0,0.4,45,0.00,,,0.00,WUHU21623XXSP,2013-03-23 03:04:00,
2013-03-22 22:09:00,28.9,10.2,30.03,NNE,22,0.0,0.0,45,0.00,,,0.00,WUHU21623XXSP,2013-03-23 03:09:00,
2013-03-22 22:14:00,28.8,10.0,30.03,NE,45,0.0,0.0,45,0.00,,,0.00,WUHU21623XXSP,2013-03-23 03:14:00,
2013-03-22 22:19:00,28.8,10.0,30.03,NE,45,0.0,0.0,45,0.00,,,0.00,WUHU21623XXSP,2013-03-23 03:19:00,
2013-03-22 22:24:00,28.8,10.0,30.03,NE,45,0.0,0.0,45,0.00,,,0.00,WUHU21623XXSP,2013-03-23 03:24:00,
2013-03-22 22:29:00,28.8,10.0,30.02,NE,45,0.0,0.0,45,0.00,,,0.00,WUHU21623XXSP,2013-03-23 03:29:00,
2013-03-22 22:34:00,28.8,10.0,30.02,NE,45,0.0,0.0,45,0.00,,,0.00,WUHU21623XXSP,2013-03-23 03:34:00,
2013-03-22 22:39:00,28.8,10.0,30.03,ENE,67,0.0,0.0,45,0.00,,,0.00,WUHU21623XXSP,2013-03-23 03:39:00,
2013-03-22 22:44:00,28.8,10.0,30.03,ENE,67,0.0,0.0,45,0.00,,,0.00,WUHU21623XXSP,2013-03-23 03:44:00,
2013-03-22 22:49:00,28.8,10.0,30.03,NE,45,0.0,0.0,45,0.00,,,0.00,WUHU21623XXSP,2013-03-23 03:49:00,
2013-03-22 22:54:00,28.8,10.0,30.03,NE,45,0.0,0.0,45,0.00,,,0.00,WUHU21623XXSP,2013-03-23 03:54:00,
2013-03-22 22:59:00,28.8,10.0,30.03,NE,45,0.0,0.0,45,0.00,,,0.00,WUHU21623XXSP,2013-03-23 03:59:00,
2013-03-22 23:00:00,28.8,10.0,30.03,NE,45,0.0,0.0,45,0.00,,,0.00,WUHU21623XXSP,2013-03-23 04:00:00,
2013-03-22 23:05:00,28.8,10.0,30.04,ENE,67,0.0,0.0,45,0.00,,,0.00,WUHU21623XXSP,2013-03-23 04:05:00,
2013-03-22 23:10:00,28.8,10.0,30.04,NE,45,0.0,0.0,45,0.00,,,0.00,WUHU21623XXSP,2013-03-23 04:10:00,
2013-03-22 23:15:00,28.8,10.5,30.04,NE,45,0.0,0.0,46,0.00,,,0.00,WUHU21623XXSP,2013-03-23 04:15:00,
2013-03-22 23:20:00,28.9,10.7,30.03,NE,45,0.0,0.7,46,0.00,,,0.00,WUHU21623XXSP,2013-03-23 04:20:00,
2013-03-22 23:25:00,28.8,10.5,30.03,NE,45,0.0,0.7,46,0.00,,,0.00,WUHU21623XXSP,2013-03-23 04:25:00,
2013-03-22 23:30:00,28.9,11.2,30.04,NE,45,0.0,0.0,47,0.00,,,0.00,WUHU21623XXSP,2013-03-23 04:30:00,
2013-03-22 23:35:00,29.1,11.3,30.03,NE,45,0.0,0.0,47,0.00,,,0.00,WUHU21623XXSP,2013-03-23 04:35:00,
2013-03-22 23:40:00,29.1,11.3,30.03,ENE,67,0.0,0.4,47,0.00,,,0.00,WUHU21623XXSP,2013-03-23 04:40:00,
2013-03-22 23:45:00,29.1,11.3,30.03,NE,45,0.0,0.4,47,0.00,,,0.00,WUHU21623XXSP,2013-03-23 04:45:00,
2013-03-22 23:50:00,29.1,11.3,30.03,NE,45,0.0,0.4,47,0.00,,,0.00,WUHU21623XXSP,2013-03-23 04:50:00,
2013-03-22 23:55:00,29.1,11.3,30.04,NE,45,0.0,0.4,47,0.00,,,0.00,WUHU21623XXSP,2013-03-23 04:55:00,